Lorraine — A8IZ3 — position and weather

sailwx.info

Track history (hours):
 
Tides and Currents Weather Stations Pressure Air Temp Water Temp Dewpoint Dewpoint Depression Visibility Wind Speed Wind Dir Waves Ship Positions

Lorraine

Last reported at 2015-Aug-03 06:31 UTC. Time now 2015-Aug-04 13:49 UTC.
Position N 22°06' E 114°22'.

Length 221 m; draft 10.8 m.

Type: Ship. MMSI: 636012905.

Date/timePositionNaut miles runAvg speedWind from/ knotsBaromVisibWave heightAir tempDewpointWater temp
2015-Aug-03 06:31N 22°06' E 114°22'1813.0
2015-Aug-03 05:10N 22°16' E 114°06'710.3
2015-Aug-03 04:28N 22°21' E 114°00'9 9.4
2015-Aug-03 03:33N 22°26' E 113°53'1 1.4
2015-Aug-03 02:33N 22°28' E 113°54'0 0.0
2015-Aug-03 01:33N 22°28' E 113°54'0 0.0
2015-Aug-03 00:33N 22°28' E 113°54'0 0.0
2015-Aug-02 23:33N 22°28' E 113°54'0 0.0
2015-Aug-02 22:33N 22°28' E 113°54'0 0.0
2015-Aug-02 21:33N 22°28' E 113°54'0 0.0
2015-Aug-02 20:33N 22°28' E 113°54'0 0.0
2015-Aug-02 19:33N 22°28' E 113°54'0 0.0
2015-Aug-02 18:33N 22°28' E 113°54'0 0.0
2015-Aug-02 17:33N 22°28' E 113°54'3 3.4
2015-Aug-02 16:33N 22°24' E 113°54'11 9.5
2015-Aug-02 15:23N 22°20' E 114°05'2 2.6
2015-Aug-02 14:32N 22°18' E 114°05'0 0.2
2015-Aug-02 13:33N 22°18' E 114°05'3 2.8
2015-Aug-02 12:33N 22°21' E 114°07'0 0.0
2015-Aug-02 11:33N 22°21' E 114°07'0 0.0
2015-Aug-02 10:30N 22°21' E 114°07'0 0.0
2015-Aug-02 08:26N 22°21' E 114°07'0 0.0
2015-Aug-02 07:29N 22°21' E 114°07'0 0.0
2015-Aug-02 06:32N 22°21' E 114°07'0 0.0
2015-Aug-02 05:31N 22°21' E 114°07'0 0.0
2015-Aug-02 04:22N 22°21' E 114°07'0 0.0
2015-Aug-02 03:18N 22°21' E 114°07'0 0.2
2015-Aug-02 01:33N 22°20' E 114°07'23 7.6
2015-Aug-01 22:33N 22°10' E 114°29'3 2.9
2015-Aug-01 21:29N 22°07' E 114°29'5 2.7
2015-Aug-01 19:33N 22°11' E 114°32'  
2015-Jul-30 15:26N 30°38' E 123°22'3712.8
2015-Jul-30 12:33N 31°15' E 123°23'9015.0
2015-Jul-30 06:33N 32°45' E 123°27'20211.7
2015-Jul-29 13:18N 34°55' E 120°21'1214.7
2015-Jul-29 12:29N 34°56' E 120°06'1514.6
2015-Jul-29 11:28N 34°52' E 119°49'12 0.9
2015-Jul-28 23:06N 34°47' E 119°36'611.4
2015-Jul-28 22:32N 34°50' E 119°43'99 2.7
2015-Jul-27 09:33N 35°56' E 121°14'11011.8
2015-Jul-27 00:13N 37°17' E 122°48'3014.6
2015-Jul-26 22:11N 37°43' E 122°32'1515.2
2015-Jul-26 21:13N 37°56' E 122°22'1515.1
2015-Jul-26 20:15N 38°09' E 122°13'1014.4
2015-Jul-26 19:33N 38°18' E 122°07'1514.7
2015-Jul-26 18:30N 38°31' E 121°57'1414.5
2015-Jul-26 17:33N 38°45' E 121°55'13 1.8
2015-Jul-26 10:25N 38°58' E 121°56'8 9.1
2015-Jul-26 09:33N 38°50' E 121°54'1313.4
2015-Jul-26 08:34N 38°37' E 121°49'1413.8
2015-Jul-26 07:33N 38°28' E 121°36'6415.2
2015-Jul-26 03:21N 38°41' E 120°15'1816.0
2015-Jul-26 02:13N 38°42' E 119°52'1116.1
2015-Jul-26 01:33N 38°43' E 119°39'1616.2
2015-Jul-26 00:33N 38°44' E 119°18'5215.9
2015-Jul-25 21:17N 38°52' E 118°12'1013.7
2015-Jul-25 20:32N 38°56' E 117°60'3 0.1
2015-Jul-24 17:32N 38°59' E 118°01'0 0.0
2015-Jul-24 16:32N 38°59' E 118°01'0 0.0
2015-Jul-24 15:26N 38°59' E 118°01'0 0.0
2015-Jul-24 14:31N 38°59' E 118°01'0 0.0
2015-Jul-24 13:25N 38°59' E 118°01'0 0.0
2015-Jul-24 12:24N 38°59' E 118°01'0 0.0
2015-Jul-24 10:17N 38°59' E 118°01'0 0.0
2015-Jul-24 09:33N 38°59' E 118°01'0 0.0
2015-Jul-24 08:33N 38°59' E 118°01'0 0.0
2015-Jul-24 07:33N 38°59' E 118°01'  
Track history (hours):
 
Tides and Currents Weather Stations Pressure Air Temp Water Temp Dewpoint Dewpoint Depression Visibility Wind Speed Wind Dir Waves Ship Positions

Lorraine

Last reported at 2015-Aug-03 06:31 UTC. Time now 2015-Aug-04 13:49 UTC.
Position N 22°06' E 114°22'.

Length 221 m; draft 10.8 m.

Type: Ship. MMSI: 636012905.

Date/timePositionNaut miles runAvg speedWind from/ knotsBaromVisibWave heightAir tempDewpointWater temp
2015-Aug-03 06:31N 22°06' E 114°22'1813.0
2015-Aug-03 05:10N 22°16' E 114°06'710.3
2015-Aug-03 04:28N 22°21' E 114°00'9 9.4
2015-Aug-03 03:33N 22°26' E 113°53'1 1.4
2015-Aug-03 02:33N 22°28' E 113°54'0 0.0
2015-Aug-03 01:33N 22°28' E 113°54'0 0.0
2015-Aug-03 00:33N 22°28' E 113°54'0 0.0
2015-Aug-02 23:33N 22°28' E 113°54'0 0.0
2015-Aug-02 22:33N 22°28' E 113°54'0 0.0
2015-Aug-02 21:33N 22°28' E 113°54'0 0.0
2015-Aug-02 20:33N 22°28' E 113°54'0 0.0
2015-Aug-02 19:33N 22°28' E 113°54'0 0.0
2015-Aug-02 18:33N 22°28' E 113°54'0 0.0
2015-Aug-02 17:33N 22°28' E 113°54'3 3.4
2015-Aug-02 16:33N 22°24' E 113°54'11 9.5
2015-Aug-02 15:23N 22°20' E 114°05'2 2.6
2015-Aug-02 14:32N 22°18' E 114°05'0 0.2
2015-Aug-02 13:33N 22°18' E 114°05'3 2.8
2015-Aug-02 12:33N 22°21' E 114°07'0 0.0
2015-Aug-02 11:33N 22°21' E 114°07'0 0.0
2015-Aug-02 10:30N 22°21' E 114°07'0 0.0
2015-Aug-02 08:26N 22°21' E 114°07'0 0.0
2015-Aug-02 07:29N 22°21' E 114°07'0 0.0
2015-Aug-02 06:32N 22°21' E 114°07'0 0.0
2015-Aug-02 05:31N 22°21' E 114°07'0 0.0
2015-Aug-02 04:22N 22°21' E 114°07'0 0.0
2015-Aug-02 03:18N 22°21' E 114°07'0 0.2
2015-Aug-02 01:33N 22°20' E 114°07'23 7.6
2015-Aug-01 22:33N 22°10' E 114°29'3 2.9
2015-Aug-01 21:29N 22°07' E 114°29'5 2.7
2015-Aug-01 19:33N 22°11' E 114°32'  
2015-Jul-30 15:26N 30°38' E 123°22'3712.8
2015-Jul-30 12:33N 31°15' E 123°23'9015.0
2015-Jul-30 06:33N 32°45' E 123°27'20211.7
2015-Jul-29 13:18N 34°55' E 120°21'1214.7
2015-Jul-29 12:29N 34°56' E 120°06'1514.6
2015-Jul-29 11:28N 34°52' E 119°49'12 0.9
2015-Jul-28 23:06N 34°47' E 119°36'611.4
2015-Jul-28 22:32N 34°50' E 119°43'99 2.7
2015-Jul-27 09:33N 35°56' E 121°14'11011.8
2015-Jul-27 00:13N 37°17' E 122°48'3014.6
2015-Jul-26 22:11N 37°43' E 122°32'1515.2
2015-Jul-26 21:13N 37°56' E 122°22'1515.1
2015-Jul-26 20:15N 38°09' E 122°13'1014.4
2015-Jul-26 19:33N 38°18' E 122°07'1514.7
2015-Jul-26 18:30N 38°31' E 121°57'1414.5
2015-Jul-26 17:33N 38°45' E 121°55'13 1.8
2015-Jul-26 10:25N 38°58' E 121°56'8 9.1
2015-Jul-26 09:33N 38°50' E 121°54'1313.4
2015-Jul-26 08:34N 38°37' E 121°49'1413.8
2015-Jul-26 07:33N 38°28' E 121°36'6415.2
2015-Jul-26 03:21N 38°41' E 120°15'1816.0
2015-Jul-26 02:13N 38°42' E 119°52'1116.1
2015-Jul-26 01:33N 38°43' E 119°39'1616.2
2015-Jul-26 00:33N 38°44' E 119°18'5215.9
2015-Jul-25 21:17N 38°52' E 118°12'1013.7
2015-Jul-25 20:32N 38°56' E 117°60'3 0.1
2015-Jul-24 17:32N 38°59' E 118°01'0 0.0
2015-Jul-24 16:32N 38°59' E 118°01'0 0.0
2015-Jul-24 15:26N 38°59' E 118°01'0 0.0
2015-Jul-24 14:31N 38°59' E 118°01'0 0.0
2015-Jul-24 13:25N 38°59' E 118°01'0 0.0
2015-Jul-24 12:24N 38°59' E 118°01'0 0.0
2015-Jul-24 10:17N 38°59' E 118°01'0 0.0
2015-Jul-24 09:33N 38°59' E 118°01'0 0.0
2015-Jul-24 08:33N 38°59' E 118°01'0 0.0
2015-Jul-24 07:33N 38°59' E 118°01'  

Dump ship's entire track history